createdAt,value
2023-05-10T06:37:08.825Z,5.37
2023-05-10T06:39:35.203Z,5.37
2023-05-10T06:42:02.673Z,5.97
2023-05-10T06:44:29.053Z,5.73
2023-05-10T06:46:56.690Z,8.10
2023-05-10T06:49:23.094Z,6.17
2023-05-10T06:51:49.991Z,7.20
2023-05-10T06:54:16.367Z,6.23
2023-05-10T06:56:42.729Z,8.80
2023-05-10T06:59:09.111Z,10.40
2023-05-10T07:01:35.589Z,8.80
2023-05-10T07:04:01.998Z,8.60
2023-05-10T07:06:33.509Z,5.93
2023-05-10T07:09:01.331Z,6.40
2023-05-10T07:11:27.762Z,7.65
2023-05-10T07:13:54.153Z,6.90
2023-05-10T07:16:20.653Z,6.65
2023-05-10T07:18:47.121Z,7.28
2023-05-10T07:21:13.531Z,7.95
2023-05-10T07:23:39.988Z,7.18
2023-05-10T07:26:06.368Z,4.35
2023-05-10T07:28:32.769Z,5.13
2023-05-10T07:30:59.197Z,8.40
2023-05-10T07:33:25.619Z,7.60
2023-05-10T07:35:51.983Z,5.53
2023-05-10T07:38:18.453Z,9.02
2023-05-10T07:40:44.877Z,9.52
2023-05-10T07:43:11.309Z,4.60
2023-05-10T07:45:37.755Z,3.75
2023-05-10T07:48:04.193Z,5.30
2023-05-10T07:50:30.742Z,5.60
2023-05-10T07:52:57.486Z,7.78
2023-05-10T07:55:23.852Z,6.13
2023-05-10T07:57:50.259Z,5.35
2023-05-10T08:00:21.121Z,7.05
2023-05-10T08:02:48.186Z,4.60
2023-05-10T08:05:15.681Z,5.93
2023-05-10T08:07:43.303Z,7.57
2023-05-10T08:10:11.929Z,13.30
2023-05-10T08:12:39.198Z,6.50
2023-05-10T08:15:06.209Z,6.68
2023-05-10T08:17:32.719Z,18.60
2023-05-10T08:19:59.120Z,9.18
2023-05-10T08:22:25.508Z,9.45
2023-05-10T08:24:51.928Z,6.43
2023-05-10T08:27:18.383Z,7.70
2023-05-10T08:29:50.212Z,6.03
2023-05-10T08:32:17.139Z,7.05
2023-05-10T08:34:43.639Z,7.72
2023-05-10T08:37:11.458Z,9.68
2023-05-10T08:39:38.234Z,11.52
2023-05-10T08:42:05.712Z,4.88
2023-05-10T08:44:33.490Z,11.80
2023-05-10T08:47:03.408Z,5.75
2023-05-10T08:49:32.650Z,8.68
2023-05-10T08:52:02.776Z,5.85
2023-05-10T08:54:29.212Z,5.80
2023-05-10T08:56:55.780Z,4.53
2023-05-10T08:59:22.525Z,6.85
2023-05-10T09:01:50.356Z,9.02
2023-05-10T09:04:17.498Z,3.50
2023-05-10T09:06:44.053Z,3.88
2023-05-10T09:09:10.908Z,6.45
2023-05-10T09:11:37.483Z,9.20
2023-05-10T09:14:04.008Z,7.95
2023-05-10T09:16:30.585Z,5.50
2023-05-10T09:18:57.085Z,6.75
2023-05-10T09:21:23.512Z,4.63
2023-05-10T09:23:51.223Z,3.47
2023-05-10T09:26:18.396Z,5.40
2023-05-10T09:28:53.430Z,4.57
2023-05-10T09:31:20.151Z,6.38
2023-05-10T09:33:47.984Z,6.80
2023-05-10T09:36:14.901Z,4.38
2023-05-10T09:38:55.713Z,4.63
2023-05-10T09:41:24.104Z,4.90
2023-05-10T09:43:50.746Z,5.80
2023-05-10T09:46:17.481Z,7.65
2023-05-10T09:48:48.554Z,8.55
2023-05-10T09:51:25.768Z,5.32
2023-05-10T09:54:11.140Z,8.55
2023-05-10T09:56:41.275Z,6.80
2023-05-10T09:59:10.276Z,8.65
2023-05-10T10:01:37.453Z,5.93
2023-05-10T10:04:05.926Z,5.25
2023-05-10T10:06:39.922Z,4.60
2023-05-10T10:09:07.440Z,4.65
2023-05-10T10:11:38.558Z,4.30
2023-05-10T10:14:06.208Z,8.02
2023-05-10T10:16:33.172Z,7.07
2023-05-10T10:18:59.777Z,5.60
2023-05-10T10:21:26.534Z,6.90
2023-05-10T10:23:53.965Z,5.53
2023-05-10T10:26:22.511Z,9.63
2023-05-10T10:29:13.888Z,6.32
2023-05-10T10:31:47.098Z,8.13
2023-05-10T10:34:27.939Z,9.02
2023-05-10T10:36:55.632Z,9.45
2023-05-10T10:39:22.172Z,7.32
2023-05-10T10:41:52.807Z,5.63
2023-05-10T10:44:31.871Z,10.35
2023-05-10T10:47:19.400Z,4.20
2023-05-10T10:50:03.227Z,7.90
2023-05-10T10:52:35.154Z,11.95
2023-05-10T10:55:12.001Z,5.45
2023-05-10T10:57:41.327Z,4.80
2023-05-10T11:00:28.086Z,3.40
2023-05-10T11:03:07.274Z,3.75
2023-05-10T11:05:33.670Z,7.03
2023-05-10T11:08:01.212Z,3.22
2023-05-10T11:10:28.189Z,3.60
2023-05-10T11:13:03.976Z,6.80
2023-05-10T11:15:32.315Z,12.50
2023-05-10T11:17:58.874Z,6.57
2023-05-10T11:20:34.044Z,7.38
2023-05-10T11:23:13.807Z,8.68
2023-05-10T11:25:45.059Z,3.20
2023-05-10T11:28:13.670Z,5.78
2023-05-10T11:30:41.421Z,4.13
2023-05-10T11:33:09.171Z,3.92
2023-05-10T11:35:42.484Z,7.60
2023-05-10T11:38:11.171Z,6.10
2023-05-10T11:40:38.611Z,6.70
2023-05-10T11:43:05.499Z,5.65
2023-05-10T11:45:35.921Z,4.50
2023-05-10T11:48:03.577Z,5.65
2023-05-10T11:50:30.036Z,5.15
2023-05-10T11:52:58.018Z,6.60
2023-05-10T11:55:25.253Z,5.28
2023-05-10T11:57:55.730Z,3.88
2023-05-10T12:00:22.471Z,4.80
2023-05-10T12:02:49.744Z,4.68
2023-05-10T12:05:17.220Z,7.38
2023-05-10T12:07:43.859Z,10.55
2023-05-10T12:10:13.163Z,4.47
2023-05-10T12:12:43.040Z,7.82
2023-05-10T12:15:17.698Z,6.43
2023-05-10T12:17:45.645Z,5.43
2023-05-10T12:20:17.547Z,7.00
2023-05-10T12:22:50.409Z,5.25
2023-05-10T12:25:17.453Z,5.40
2023-05-10T12:27:52.514Z,8.20
2023-05-10T12:30:26.861Z,4.00
2023-05-10T12:32:54.141Z,5.60
2023-05-10T12:35:22.953Z,5.28
2023-05-10T12:37:49.328Z,5.78
2023-05-10T12:40:15.857Z,6.55
2023-05-10T12:42:42.457Z,4.13
2023-05-10T12:45:09.781Z,5.47
2023-05-10T12:47:36.766Z,6.13
2023-05-10T12:50:04.126Z,5.30
2023-05-10T12:52:32.964Z,7.60
2023-05-10T12:55:00.574Z,5.72
2023-05-10T12:57:28.030Z,5.20
2023-05-10T12:59:55.057Z,4.75
2023-05-10T13:02:22.239Z,3.25
2023-05-10T13:04:50.922Z,8.65
2023-05-10T13:07:17.564Z,5.97
2023-05-10T13:09:44.332Z,5.15
2023-05-10T13:12:10.817Z,8.07
2023-05-10T13:14:37.197Z,9.30
2023-05-10T13:17:03.628Z,6.47
2023-05-10T13:19:30.075Z,6.68
2023-05-10T13:21:56.510Z,9.75
2023-05-10T13:24:23.242Z,3.85
2023-05-10T13:26:49.691Z,7.10
2023-05-10T13:29:18.346Z,6.65
2023-05-10T13:31:44.898Z,5.05
2023-05-10T13:34:11.291Z,5.32
2023-05-10T13:36:37.803Z,5.45
2023-05-10T13:39:06.180Z,6.07
2023-05-10T13:41:32.758Z,5.78
2023-05-10T13:43:59.242Z,5.05
2023-05-10T13:46:25.733Z,3.47
2023-05-10T13:48:52.197Z,5.70
2023-05-10T13:51:18.632Z,7.28
2023-05-10T13:53:45.020Z,4.10
2023-05-10T13:56:11.415Z,4.15
2023-05-10T13:58:37.977Z,4.97
2023-05-10T14:01:05.803Z,3.90
2023-05-10T14:03:32.327Z,3.08
2023-05-10T14:05:58.999Z,5.13
2023-05-10T14:08:25.374Z,8.23
2023-05-10T14:10:53.214Z,6.63
2023-05-10T14:13:19.606Z,7.90
2023-05-10T14:15:46.030Z,6.82
2023-05-10T14:18:12.438Z,4.88
2023-05-10T14:20:38.872Z,7.93
2023-05-10T14:23:05.343Z,5.32
2023-05-10T14:25:31.782Z,5.10
2023-05-10T14:27:58.350Z,5.60
2023-05-10T14:30:24.745Z,10.27
2023-05-10T14:32:51.269Z,5.88
2023-05-10T14:35:19.428Z,5.63
2023-05-10T14:37:46.383Z,4.35
2023-05-10T14:40:13.347Z,2.95
2023-05-10T14:42:39.761Z,4.35
2023-05-10T14:45:06.608Z,4.95
2023-05-10T14:47:33.027Z,4.10
2023-05-10T14:49:59.471Z,4.47
2023-05-10T14:52:25.977Z,4.97
2023-05-10T14:54:52.577Z,7.30
2023-05-10T14:57:18.963Z,6.32
2023-05-10T14:59:45.312Z,4.10
2023-05-10T15:02:12.492Z,4.50
2023-05-10T15:04:39.328Z,3.28
2023-05-10T15:07:06.710Z,4.82
2023-05-10T15:09:33.086Z,4.47
2023-05-10T15:11:59.486Z,2.92
2023-05-10T15:14:25.884Z,7.28
2023-05-10T15:16:52.267Z,6.10
2023-05-10T15:19:18.711Z,4.47
2023-05-10T15:21:45.563Z,6.97
2023-05-10T15:24:12.004Z,5.68
2023-05-10T15:26:38.408Z,3.38
2023-05-10T15:29:04.858Z,6.13
2023-05-10T15:31:31.373Z,4.95
2023-05-10T15:33:59.916Z,4.47
2023-05-10T15:36:26.288Z,8.82
2023-05-10T15:38:53.832Z,3.97
2023-05-10T15:41:22.167Z,2.95
2023-05-10T15:43:48.792Z,8.15
2023-05-10T15:46:15.229Z,3.78
2023-05-10T15:48:41.644Z,5.63
2023-05-10T15:51:07.992Z,6.13
2023-05-10T15:53:34.363Z,6.22
2023-05-10T15:56:00.821Z,6.53
2023-05-10T15:58:27.230Z,4.85
2023-05-10T16:00:53.774Z,5.63
2023-05-10T16:03:23.257Z,4.78
2023-05-10T16:05:49.629Z,4.72
2023-05-10T16:08:16.005Z,4.50
2023-05-10T16:10:42.406Z,4.50
2023-05-10T16:13:08.833Z,5.85
2023-05-10T16:15:35.219Z,4.13
2023-05-10T16:18:01.725Z,5.55
2023-05-10T16:20:28.250Z,3.50
2023-05-10T16:22:54.640Z,5.28
2023-05-10T16:25:21.227Z,7.10
2023-05-10T16:27:47.606Z,5.40
2023-05-10T16:30:14.272Z,8.00
2023-05-10T16:32:40.659Z,6.75
2023-05-10T16:35:07.754Z,8.75
2023-05-10T16:37:34.148Z,6.45
2023-05-10T16:40:00.650Z,9.35
2023-05-10T16:42:28.126Z,6.75
2023-05-10T16:44:54.862Z,5.75
2023-05-10T16:47:21.243Z,7.88
2023-05-10T16:49:47.669Z,8.63
2023-05-10T16:52:14.084Z,8.10
2023-05-10T16:54:40.436Z,6.40
2023-05-10T16:57:07.348Z,6.97
2023-05-10T16:59:33.964Z,9.15
2023-05-10T17:02:00.443Z,8.43
2023-05-10T17:04:27.050Z,8.10
2023-05-10T17:06:53.437Z,16.00
2023-05-10T17:09:20.567Z,9.52
2023-05-10T17:11:47.101Z,6.85
2023-05-10T17:14:13.491Z,16.60
2023-05-10T17:16:39.996Z,11.00
2023-05-10T17:19:06.630Z,6.75
2023-05-10T17:21:33.050Z,7.72
2023-05-10T17:23:59.442Z,10.15
2023-05-10T17:26:27.468Z,10.90
2023-05-10T17:28:54.638Z,9.40
2023-05-10T17:31:21.071Z,10.70
2023-05-10T17:33:47.472Z,7.65
2023-05-10T17:36:13.844Z,7.88
2023-05-10T17:38:40.235Z,11.85
2023-05-10T17:41:06.659Z,7.82
2023-05-10T17:43:33.030Z,7.05
2023-05-10T17:45:59.601Z,11.00
2023-05-10T17:48:26.069Z,7.90
2023-05-10T17:50:52.510Z,9.95
2023-05-10T17:53:19.287Z,10.07
2023-05-10T17:55:45.681Z,9.15
2023-05-10T17:58:12.559Z,6.95
2023-05-10T18:00:39.133Z,7.13
2023-05-10T18:03:05.846Z,10.32
2023-05-10T18:05:36.123Z,7.85
2023-05-10T18:08:03.207Z,10.02
2023-05-10T18:10:29.649Z,12.20
2023-05-10T18:12:56.771Z,9.95
2023-05-10T18:15:23.785Z,8.13
2023-05-10T18:17:50.452Z,8.40
2023-05-10T18:20:16.869Z,8.85
2023-05-10T18:22:43.373Z,6.90
2023-05-10T18:25:10.230Z,7.20
2023-05-10T18:27:36.732Z,10.27
2023-05-10T18:30:03.164Z,6.95
2023-05-10T18:32:29.654Z,11.13
2023-05-10T18:34:57.368Z,8.10
2023-05-10T18:37:23.978Z,8.95
2023-05-10T18:39:50.772Z,11.75
2023-05-10T18:42:17.466Z,10.20
2023-05-10T18:44:43.886Z,8.23
2023-05-10T18:47:10.241Z,9.75
2023-05-10T18:49:36.610Z,11.05
2023-05-10T18:52:03.020Z,9.45
2023-05-10T18:54:29.974Z,11.13
2023-05-10T18:56:57.300Z,9.77
2023-05-10T18:59:23.776Z,8.38
2023-05-10T19:01:51.294Z,7.20
2023-05-10T19:04:17.912Z,8.48
2023-05-10T19:06:44.445Z,7.65
2023-05-10T19:09:10.888Z,8.82
2023-05-10T19:11:37.293Z,7.32
2023-05-10T19:14:05.632Z,7.28
2023-05-10T19:16:35.860Z,8.20
2023-05-10T19:19:02.816Z,7.35
2023-05-10T19:21:31.156Z,7.93
2023-05-10T19:23:58.454Z,8.23
2023-05-10T19:26:24.823Z,9.25
2023-05-10T19:28:52.409Z,7.95
2023-05-10T19:31:19.735Z,10.05
2023-05-10T19:33:46.876Z,7.72
2023-05-10T19:36:13.423Z,8.15
2023-05-10T19:38:39.882Z,9.25
2023-05-10T19:41:06.286Z,9.40
2023-05-10T19:43:38.312Z,8.82
2023-05-10T19:46:04.683Z,9.35
2023-05-10T19:48:31.730Z,10.73
2023-05-10T19:51:02.996Z,12.60
2023-05-10T19:53:29.869Z,12.02
2023-05-10T19:55:56.406Z,11.55
2023-05-10T19:58:23.435Z,12.40
2023-05-10T20:00:50.005Z,9.13
2023-05-10T20:03:16.608Z,10.68
2023-05-10T20:05:43.036Z,13.00
2023-05-10T20:08:09.400Z,11.38
2023-05-10T20:10:35.813Z,9.23
2023-05-10T20:13:02.196Z,10.90
2023-05-10T20:15:29.008Z,9.32
2023-05-10T20:17:55.462Z,12.50
2023-05-10T20:20:22.091Z,10.23
2023-05-10T20:22:48.605Z,11.18
2023-05-10T20:25:16.203Z,11.10
2023-05-10T20:27:43.068Z,11.88
2023-05-10T20:30:10.406Z,15.07
2023-05-10T20:32:37.920Z,12.30
2023-05-10T20:35:05.316Z,12.57
2023-05-10T20:37:31.786Z,11.73
2023-05-10T20:39:58.210Z,11.38
2023-05-10T20:42:24.641Z,13.10
2023-05-10T20:44:51.111Z,14.13
2023-05-10T20:47:18.069Z,10.68
2023-05-10T20:49:44.429Z,10.32
2023-05-10T20:52:10.827Z,12.73
2023-05-10T20:54:37.220Z,10.48
2023-05-10T20:57:03.615Z,12.40
2023-05-10T20:59:29.984Z,12.50
2023-05-10T21:01:57.306Z,10.00
2023-05-10T21:04:24.590Z,10.82
2023-05-10T21:06:51.639Z,10.05
2023-05-10T21:09:18.046Z,11.10
2023-05-10T21:11:44.484Z,14.38
2023-05-10T21:14:10.921Z,12.10
2023-05-10T21:16:37.361Z,15.30
2023-05-10T21:19:03.805Z,15.73
2023-05-10T21:21:30.357Z,11.52
2023-05-10T21:23:56.738Z,10.93
2023-05-10T21:26:23.233Z,10.77
2023-05-10T21:28:49.651Z,13.82
2023-05-10T21:31:16.080Z,12.73
2023-05-10T21:33:42.487Z,11.95
2023-05-10T21:36:09.513Z,10.63
2023-05-10T21:38:35.981Z,13.65
2023-05-10T21:41:06.790Z,11.38
2023-05-10T21:43:33.474Z,10.70
2023-05-10T21:45:59.915Z,11.02
2023-05-10T21:48:26.399Z,12.80
2023-05-10T21:50:52.773Z,11.73
2023-05-10T21:53:19.693Z,11.98
2023-05-10T21:55:46.081Z,11.50
2023-05-10T21:58:12.482Z,10.75
2023-05-10T22:00:38.916Z,11.52
2023-05-10T22:03:05.504Z,11.35
2023-05-10T22:05:32.076Z,12.70
2023-05-10T22:07:58.459Z,13.15
2023-05-10T22:10:24.840Z,11.65
2023-05-10T22:12:51.647Z,12.73
2023-05-10T22:15:18.154Z,11.25
2023-05-10T22:17:44.593Z,12.05
2023-05-10T22:20:11.090Z,11.55
2023-05-10T22:22:37.556Z,11.50
2023-05-10T22:25:08.342Z,15.25
2023-05-10T22:27:34.966Z,13.55
2023-05-10T22:30:01.560Z,12.55
2023-05-10T22:32:28.062Z,12.25
2023-05-10T22:34:54.535Z,12.45
2023-05-10T22:37:20.909Z,12.48
2023-05-10T22:39:47.275Z,13.52
2023-05-10T22:42:13.652Z,15.07
2023-05-10T22:44:40.035Z,12.20
2023-05-10T22:47:06.803Z,11.70
2023-05-10T22:49:33.715Z,13.88
2023-05-10T22:52:00.523Z,11.95
2023-05-10T22:54:27.178Z,11.48
2023-05-10T22:56:53.853Z,11.60
2023-05-10T22:59:20.654Z,12.13
2023-05-10T23:01:48.849Z,16.25
2023-05-10T23:04:15.783Z,10.77
2023-05-10T23:06:42.206Z,14.48
2023-05-10T23:09:08.983Z,12.77
2023-05-10T23:11:35.362Z,12.55
2023-05-10T23:14:01.786Z,10.80
2023-05-10T23:16:28.177Z,11.80
2023-05-10T23:18:54.774Z,10.65
2023-05-10T23:21:21.452Z,11.07
2023-05-10T23:23:47.994Z,12.30
2023-05-10T23:26:14.435Z,11.02
2023-05-10T23:28:41.034Z,11.02
2023-05-10T23:31:07.398Z,11.05
2023-05-10T23:33:33.782Z,10.43
2023-05-10T23:36:00.176Z,10.77
2023-05-10T23:38:26.964Z,10.30
2023-05-10T23:40:53.447Z,10.73
2023-05-10T23:43:20.766Z,11.15
2023-05-10T23:45:54.733Z,10.43
2023-05-10T23:48:21.527Z,11.25
2023-05-10T23:50:47.915Z,11.85
2023-05-10T23:53:14.380Z,10.88
2023-05-10T23:55:40.758Z,10.73
2023-05-10T23:58:07.120Z,14.48
